Архив погоды в Агзу

Метеограмма Агзу
Суббота, 19 Августа
Время местн. Темп Ветер Видим Явления Облачность нижн/средн/верх Атм. давл. Влжн Точка росы ВНГО R Сост. почвы Tg s
Напр Скр Прв ур.ст ур.м изм
01:00 +14.2° С-В 1 - 20 км - переменная облачность 747 762 +0.5 95% +13.4° 1 км - - - -
Пятница, 18 Августа
Время местн. Темп Ветер Видим Явления Облачность нижн/средн/верх Атм. давл. Влжн Точка росы ВНГО R Сост. почвы Tg s
Напр Скр Прв ур.ст ур.м изм
22:00 - +15.8° В,С-В 1 - - - - 746 761 +1.4 90% +14.1° - - - - -
19:00 +21° Ю 2 - более 50 км - облачно с прояснениями 745 759 -0.2 72% +15.7° 1 км 0 - - -
16:00 - +23.4° В,Ю-В 2 - - - - 745 759 -1.1 60% +15.3° - - - - -
13:00 +20.9° З 1 - более 50 км - облачно 746 761 -0.5 72% +15.6° 1.5 км - - - -
10:00 - +19° Ю 1 - - - - 747 761 -0.2 74% +14.3° - - - - -
07:00 +14.9° штиль 0 - более 50 км - облачно 747 762 +0.5 96% +14.2° 1.5 км 0.3 Влажная (без луж) +16° -
04:00 - +14.3° штиль 0 - - - - 746 761 -0.2 97% +13.8° - - - - -
01:00 +14.5° штиль 0 - 20 км небо без изменений {ливневые осадки} облачно 747 761 -0.2 96% +13.9° 600 м - - - -
Четверг, 17 Августа
Время местн. Темп Ветер Видим Явления Облачность нижн/средн/верх Атм. давл. Влжн Точка росы ВНГО R Сост. почвы Tg s
Напр Скр Прв ур.ст ур.м изм
22:00 - +16.7° В 1 - - - - 747 762 +1 79% +13.1° - - - - -
19:00 +19.4° Ю 3 10 более 50 км - облачно с прояснениями 746 760 +0.6 67% +13.1° 1.5 км 0 - - -
16:00 - +23.3° Ю 3 - - - - 745 760 -1.4 56% +14° - - - - -
13:00 +23.3° Ю 1 - более 50 км - переменная облачность 747 761 -1.1 49% +12.1° 1.5 км - - - -
10:00 - +18.2° С 1 - - - - 748 762 -0.2 69% +12.5° - - - - -
07:00 +12.8° штиль 0 - более 50 км - облачно 748 763 +0.3 91% +11.4° 1 км 0 Влажная (без луж) +13° -
04:00 - +12.6° штиль 0 - - - - 748 763 -0.3 95% +11.9° - - - - -
01:00 +13.4° штиль 0 - 20 км - облачно 748 763 +0.2 93% +12.3° 1 км - - - -
Среда, 16 Августа
Время местн. Темп Ветер Видим Явления Облачность нижн/средн/верх Атм. давл. Влжн Точка росы ВНГО R Сост. почвы Tg s
Напр Скр Прв ур.ст ур.м изм
22:00 - +14° С-В 1 - - - - 748 763 +1.4 94% +13° - - - - -
19:00 +19.2° Ю 3 - 50 км - облачно с прояснениями 746 761 +0.6 69% +13.4° 1 км 0 - - -
16:00 - +23.2° Ю 4 - - - - 746 760 -0.8 51% +12.5° - - - - -
13:00 +23.4° Ю 2 - более 50 км - переменная облачность 746 761 -1.4 48% +11.8° 1 км - - - -
10:00 - +16.3° Ю-З 1 - - - - 748 763 +0.1 75% +11.8° - - - - -
07:00 +10.7° штиль 0 - более 50 км - облачно 748 763 +0.6 95% +10° 1 км 0 Влажная (без луж) +11° -
04:00 - +9.5° С,С-В 1 - - - - 747 762 +0.4 97% +9° - - - - -
01:00 +11° С-В 1 - 20 км - переменная облачность 747 762 +0.4 93% +9.9° более 2.5 км - - - -
Вторник, 15 Августа
Время местн. Темп Ветер Видим Явления Облачность нижн/средн/верх Атм. давл. Влжн Точка росы ВНГО R Сост. почвы Tg s
Напр Скр Прв ур.ст ур.м изм
22:00 - +15.2° В 2 - - - - 747 762 +1.5 86% +12.8° - - - - -